sensor_id;sensor_type;location;lat;lon;timestamp;temperature;humidity
68480;DHT22;55469;48.934;12.050;2022-11-28T00:01:33;4.90;96.20
68480;DHT22;55469;48.934;12.050;2022-11-28T00:04:04;4.90;96.10
68480;DHT22;55469;48.934;12.050;2022-11-28T00:06:30;4.90;96.20
68480;DHT22;55469;48.934;12.050;2022-11-28T00:08:59;4.90;96.20
68480;DHT22;55469;48.934;12.050;2022-11-28T00:11:25;4.90;96.20
68480;DHT22;55469;48.934;12.050;2022-11-28T00:13:51;4.90;96.10
68480;DHT22;55469;48.934;12.050;2022-11-28T00:16:20;4.90;96.10
68480;DHT22;55469;48.934;12.050;2022-11-28T00:18:50;4.90;96.20
68480;DHT22;55469;48.934;12.050;2022-11-28T00:21:18;4.90;96.20
68480;DHT22;55469;48.934;12.050;2022-11-28T00:23:45;4.90;96.20
68480;DHT22;55469;48.934;12.050;2022-11-28T00:26:18;4.90;96.20
68480;DHT22;55469;48.934;12.050;2022-11-28T00:28:45;4.90;96.20
68480;DHT22;55469;48.934;12.050;2022-11-28T00:31:23;4.90;96.20
68480;DHT22;55469;48.934;12.050;2022-11-28T00:33:51;4.90;96.20
68480;DHT22;55469;48.934;12.050;2022-11-28T00:36:18;4.90;96.20
68480;DHT22;55469;48.934;12.050;2022-11-28T00:38:45;4.90;96.20
68480;DHT22;55469;48.934;12.050;2022-11-28T00:41:13;4.90;96.20
68480;DHT22;55469;48.934;12.050;2022-11-28T00:43:47;4.90;96.20
68480;DHT22;55469;48.934;12.050;2022-11-28T00:46:15;4.90;96.70
68480;DHT22;55469;48.934;12.050;2022-11-28T00:48:42;4.80;96.20
68480;DHT22;55469;48.934;12.050;2022-11-28T00:51:18;4.90;96.20
68480;DHT22;55469;48.934;12.050;2022-11-28T00:53:48;4.90;96.20
68480;DHT22;55469;48.934;12.050;2022-11-28T00:56:17;4.90;96.20
68480;DHT22;55469;48.934;12.050;2022-11-28T00:58:45;4.80;96.20
68480;DHT22;55469;48.934;12.050;2022-11-28T01:01:29;4.80;96.20
68480;DHT22;55469;48.934;12.050;2022-11-28T01:03:59;4.80;96.20
68480;DHT22;55469;48.934;12.050;2022-11-28T01:06:38;4.80;96.20
68480;DHT22;55469;48.934;12.050;2022-11-28T01:09:11;4.90;96.20
68480;DHT22;55469;48.934;12.050;2022-11-28T01:11:45;4.90;96.20
68480;DHT22;55469;48.934;12.050;2022-11-28T01:14:13;4.90;96.20
68480;DHT22;55469;48.934;12.050;2022-11-28T01:16:39;4.90;96.20
68480;DHT22;55469;48.934;12.050;2022-11-28T01:19:06;4.80;96.20
68480;DHT22;55469;48.934;12.050;2022-11-28T01:21:33;4.80;96.20
68480;DHT22;55469;48.934;12.050;2022-11-28T01:23:59;4.80;96.20
68480;DHT22;55469;48.934;12.050;2022-11-28T01:26:27;4.80;96.20
68480;DHT22;55469;48.934;12.050;2022-11-28T01:28:55;4.80;96.20
68480;DHT22;55469;48.934;12.050;2022-11-28T01:31:23;4.80;96.20
68480;DHT22;55469;48.934;12.050;2022-11-28T01:33:51;4.80;96.20
68480;DHT22;55469;48.934;12.050;2022-11-28T01:36:17;4.80;96.20
68480;DHT22;55469;48.934;12.050;2022-11-28T01:38:44;4.80;96.20
68480;DHT22;55469;48.934;12.050;2022-11-28T01:41:11;4.90;96.20
68480;DHT22;55469;48.934;12.050;2022-11-28T01:43:54;4.80;96.60
68480;DHT22;55469;48.934;12.050;2022-11-28T01:46:41;4.80;96.20
68480;DHT22;55469;48.934;12.050;2022-11-28T01:51:35;4.80;96.20
68480;DHT22;55469;48.934;12.050;2022-11-28T01:54:01;4.80;96.20
68480;DHT22;55469;48.934;12.050;2022-11-28T01:56:33;4.80;96.20
68480;DHT22;55469;48.934;12.050;2022-11-28T01:59:06;4.80;96.20
68480;DHT22;55469;48.934;12.050;2022-11-28T02:01:33;4.80;96.20
68480;DHT22;55469;48.934;12.050;2022-11-28T02:03:59;4.80;96.10
68480;DHT22;55469;48.934;12.050;2022-11-28T02:06:25;4.80;96.20
68480;DHT22;55469;48.934;12.050;2022-11-28T02:08:52;4.80;96.20
68480;DHT22;55469;48.934;12.050;2022-11-28T02:14:15;4.80;96.20
68480;DHT22;55469;48.934;12.050;2022-11-28T02:17:13;4.80;96.20
68480;DHT22;55469;48.934;12.050;2022-11-28T02:28:55;4.80;96.20
68480;DHT22;55469;48.934;12.050;2022-11-28T02:43:32;4.70;96.30
68480;DHT22;55469;48.934;12.050;2022-11-28T02:47:07;4.70;96.30
68480;DHT22;55469;48.934;12.050;2022-11-28T02:50:04;4.70;96.30
68480;DHT22;55469;48.934;12.050;2022-11-28T02:52:41;4.70;96.40
68480;DHT22;55469;48.934;12.050;2022-11-28T02:55:10;4.60;96.30
68480;DHT22;55469;48.934;12.050;2022-11-28T02:57:38;4.70;96.40
68480;DHT22;55469;48.934;12.050;2022-11-28T03:03:10;4.70;96.30
68480;DHT22;55469;48.934;12.050;2022-11-28T03:08:41;4.70;96.30
68480;DHT22;55469;48.934;12.050;2022-11-28T03:28:08;4.70;96.30
68480;DHT22;55469;48.934;12.050;2022-11-28T03:30:49;4.70;96.40
68480;DHT22;55469;48.934;12.050;2022-11-28T03:33:16;4.60;96.30
68480;DHT22;55469;48.934;12.050;2022-11-28T03:35:48;4.70;96.40
68480;DHT22;55469;48.934;12.050;2022-11-28T03:38:23;4.60;96.30
68480;DHT22;55469;48.934;12.050;2022-11-28T03:41:00;4.70;96.30
68480;DHT22;55469;48.934;12.050;2022-11-28T03:43:33;4.70;96.30
68480;DHT22;55469;48.934;12.050;2022-11-28T03:46:06;4.70;96.30
68480;DHT22;55469;48.934;12.050;2022-11-28T03:48:40;4.70;96.30
68480;DHT22;55469;48.934;12.050;2022-11-28T03:51:35;4.70;96.30
68480;DHT22;55469;48.934;12.050;2022-11-28T03:54:11;4.70;96.30
68480;DHT22;55469;48.934;12.050;2022-11-28T03:59:48;4.60;96.30
68480;DHT22;55469;48.934;12.050;2022-11-28T04:05:18;4.60;96.30
68480;DHT22;55469;48.934;12.050;2022-11-28T04:07:57;4.60;96.30
68480;DHT22;55469;48.934;12.050;2022-11-28T04:10:37;4.60;96.40
68480;DHT22;55469;48.934;12.050;2022-11-28T04:16:27;4.60;96.30
68480;DHT22;55469;48.934;12.050;2022-11-28T04:19:07;4.60;96.40
68480;DHT22;55469;48.934;12.050;2022-11-28T04:24:32;4.60;96.80
68480;DHT22;55469;48.934;12.050;2022-11-28T04:27:05;4.60;96.40
68480;DHT22;55469;48.934;12.050;2022-11-28T04:29:37;4.60;96.40
68480;DHT22;55469;48.934;12.050;2022-11-28T04:32:07;4.60;96.30
68480;DHT22;55469;48.934;12.050;2022-11-28T04:34:35;4.60;96.30
68480;DHT22;55469;48.934;12.050;2022-11-28T04:37:01;4.50;96.30
68480;DHT22;55469;48.934;12.050;2022-11-28T04:39:29;4.50;96.30
68480;DHT22;55469;48.934;12.050;2022-11-28T04:42:04;4.60;96.30
68480;DHT22;55469;48.934;12.050;2022-11-28T04:44:38;4.60;96.30
68480;DHT22;55469;48.934;12.050;2022-11-28T04:47:07;4.50;96.30
68480;DHT22;55469;48.934;12.050;2022-11-28T04:49:34;4.60;96.40
68480;DHT22;55469;48.934;12.050;2022-11-28T04:57:43;4.60;96.30
68480;DHT22;55469;48.934;12.050;2022-11-28T05:00:14;4.50;96.30
68480;DHT22;55469;48.934;12.050;2022-11-28T05:02:44;4.50;96.30
68480;DHT22;55469;48.934;12.050;2022-11-28T05:05:15;4.60;96.30
68480;DHT22;55469;48.934;12.050;2022-11-28T05:07:43;4.50;96.30
68480;DHT22;55469;48.934;12.050;2022-11-28T05:10:10;4.50;96.20
68480;DHT22;55469;48.934;12.050;2022-11-28T05:12:37;4.50;96.20
68480;DHT22;55469;48.934;12.050;2022-11-28T05:15:03;4.50;96.30
68480;DHT22;55469;48.934;12.050;2022-11-28T05:17:30;4.50;96.30
68480;DHT22;55469;48.934;12.050;2022-11-28T05:19:55;4.50;96.20
68480;DHT22;55469;48.934;12.050;2022-11-28T05:22:21;4.50;96.20
68480;DHT22;55469;48.934;12.050;2022-11-28T05:24:47;4.50;96.20
68480;DHT22;55469;48.934;12.050;2022-11-28T05:27:13;4.50;96.20
68480;DHT22;55469;48.934;12.050;2022-11-28T05:29:39;4.50;96.70
68480;DHT22;55469;48.934;12.050;2022-11-28T05:32:11;4.50;96.30
68480;DHT22;55469;48.934;12.050;2022-11-28T05:34:37;4.50;96.30
68480;DHT22;55469;48.934;12.050;2022-11-28T05:37:04;4.50;96.20
68480;DHT22;55469;48.934;12.050;2022-11-28T05:39:30;4.50;96.20
68480;DHT22;55469;48.934;12.050;2022-11-28T05:41:57;4.50;96.30
68480;DHT22;55469;48.934;12.050;2022-11-28T05:44:23;4.50;96.20
68480;DHT22;55469;48.934;12.050;2022-11-28T05:46:48;4.50;96.20
68480;DHT22;55469;48.934;12.050;2022-11-28T05:49:14;4.50;96.20
68480;DHT22;55469;48.934;12.050;2022-11-28T05:51:40;4.50;96.70
68480;DHT22;55469;48.934;12.050;2022-11-28T05:54:06;4.50;96.30
68480;DHT22;55469;48.934;12.050;2022-11-28T05:56:32;4.50;96.30
68480;DHT22;55469;48.934;12.050;2022-11-28T05:58:58;4.50;96.30
68480;DHT22;55469;48.934;12.050;2022-11-28T06:01:25;4.50;96.30
68480;DHT22;55469;48.934;12.050;2022-11-28T06:03:53;4.50;96.30
68480;DHT22;55469;48.934;12.050;2022-11-28T06:06:24;4.50;96.30
68480;DHT22;55469;48.934;12.050;2022-11-28T06:08:51;4.50;96.30
68480;DHT22;55469;48.934;12.050;2022-11-28T06:11:21;4.50;96.30
68480;DHT22;55469;48.934;12.050;2022-11-28T06:13:49;4.50;96.30
68480;DHT22;55469;48.934;12.050;2022-11-28T06:16:20;4.40;96.30
68480;DHT22;55469;48.934;12.050;2022-11-28T06:18:51;4.40;96.30
68480;DHT22;55469;48.934;12.050;2022-11-28T06:21:17;4.50;96.30
68480;DHT22;55469;48.934;12.050;2022-11-28T06:23:43;4.50;96.20
68480;DHT22;55469;48.934;12.050;2022-11-28T06:26:12;4.50;96.30
68480;DHT22;55469;48.934;12.050;2022-11-28T06:28:39;4.50;96.20
68480;DHT22;55469;48.934;12.050;2022-11-28T06:31:11;4.40;96.30
68480;DHT22;55469;48.934;12.050;2022-11-28T06:33:41;4.50;96.30
68480;DHT22;55469;48.934;12.050;2022-11-28T06:36:08;4.40;96.20
68480;DHT22;55469;48.934;12.050;2022-11-28T06:38:34;4.40;96.20
68480;DHT22;55469;48.934;12.050;2022-11-28T06:41:03;4.40;96.20
68480;DHT22;55469;48.934;12.050;2022-11-28T06:43:33;4.40;96.30
68480;DHT22;55469;48.934;12.050;2022-11-28T06:45:59;4.40;96.20
68480;DHT22;55469;48.934;12.050;2022-11-28T06:48:25;4.50;96.30
68480;DHT22;55469;48.934;12.050;2022-11-28T06:50:52;4.40;96.20
68480;DHT22;55469;48.934;12.050;2022-11-28T06:53:18;4.40;96.30
68480;DHT22;55469;48.934;12.050;2022-11-28T06:55:45;4.40;96.20
68480;DHT22;55469;48.934;12.050;2022-11-28T06:58:11;4.40;96.20
68480;DHT22;55469;48.934;12.050;2022-11-28T07:00:37;4.40;96.20
68480;DHT22;55469;48.934;12.050;2022-11-28T07:03:03;4.40;96.20
68480;DHT22;55469;48.934;12.050;2022-11-28T07:05:29;4.40;96.20
68480;DHT22;55469;48.934;12.050;2022-11-28T07:07:58;4.40;96.20
68480;DHT22;55469;48.934;12.050;2022-11-28T07:10:26;4.50;96.20
68480;DHT22;55469;48.934;12.050;2022-11-28T07:12:57;4.40;96.20
68480;DHT22;55469;48.934;12.050;2022-11-28T07:15:25;4.40;96.20
68480;DHT22;55469;48.934;12.050;2022-11-28T07:17:55;4.40;96.20
68480;DHT22;55469;48.934;12.050;2022-11-28T07:20:20;4.40;96.20
68480;DHT22;55469;48.934;12.050;2022-11-28T07:22:47;4.40;96.20
68480;DHT22;55469;48.934;12.050;2022-11-28T07:25:13;4.40;96.70
68480;DHT22;55469;48.934;12.050;2022-11-28T07:27:42;4.40;96.10
68480;DHT22;55469;48.934;12.050;2022-11-28T07:30:08;4.40;96.10
68480;DHT22;55469;48.934;12.050;2022-11-28T07:32:37;4.40;96.10
68480;DHT22;55469;48.934;12.050;2022-11-28T07:35:03;4.40;96.10
68480;DHT22;55469;48.934;12.050;2022-11-28T07:37:32;4.40;96.10
68480;DHT22;55469;48.934;12.050;2022-11-28T07:39:57;4.40;96.10
68480;DHT22;55469;48.934;12.050;2022-11-28T07:42:23;4.40;96.10
68480;DHT22;55469;48.934;12.050;2022-11-28T07:44:49;4.40;96.10
68480;DHT22;55469;48.934;12.050;2022-11-28T07:47:14;4.50;96.10
68480;DHT22;55469;48.934;12.050;2022-11-28T07:49:40;4.40;96.10
68480;DHT22;55469;48.934;12.050;2022-11-28T07:52:06;4.50;96.10
68480;DHT22;55469;48.934;12.050;2022-11-28T07:54:31;4.40;96.10
68480;DHT22;55469;48.934;12.050;2022-11-28T07:56:57;4.40;96.10
68480;DHT22;55469;48.934;12.050;2022-11-28T07:59:23;4.50;96.10
68480;DHT22;55469;48.934;12.050;2022-11-28T08:01:48;4.50;96.00
68480;DHT22;55469;48.934;12.050;2022-11-28T08:04:14;4.50;96.10
68480;DHT22;55469;48.934;12.050;2022-11-28T08:06:41;4.50;96.00
68480;DHT22;55469;48.934;12.050;2022-11-28T08:09:07;4.50;96.10
68480;DHT22;55469;48.934;12.050;2022-11-28T08:11:34;4.50;96.10
68480;DHT22;55469;48.934;12.050;2022-11-28T08:14:01;4.40;96.00
68480;DHT22;55469;48.934;12.050;2022-11-28T08:16:28;4.40;96.10
68480;DHT22;55469;48.934;12.050;2022-11-28T08:18:54;4.40;96.00
68480;DHT22;55469;48.934;12.050;2022-11-28T08:21:23;4.40;96.10
68480;DHT22;55469;48.934;12.050;2022-11-28T08:23:51;4.40;96.00
68480;DHT22;55469;48.934;12.050;2022-11-28T08:26:20;4.50;96.10
68480;DHT22;55469;48.934;12.050;2022-11-28T08:28:47;4.40;96.00
68480;DHT22;55469;48.934;12.050;2022-11-28T08:31:16;4.50;96.00
68480;DHT22;55469;48.934;12.050;2022-11-28T08:33:44;4.40;96.00
68480;DHT22;55469;48.934;12.050;2022-11-28T08:36:12;4.50;96.00
68480;DHT22;55469;48.934;12.050;2022-11-28T08:38:40;4.50;96.00
68480;DHT22;55469;48.934;12.050;2022-11-28T08:41:10;4.50;96.00
68480;DHT22;55469;48.934;12.050;2022-11-28T08:43:37;4.40;96.00
68480;DHT22;55469;48.934;12.050;2022-11-28T08:46:04;4.50;96.00
68480;DHT22;55469;48.934;12.050;2022-11-28T08:48:33;4.50;96.00
68480;DHT22;55469;48.934;12.050;2022-11-28T08:51:00;4.40;95.90
68480;DHT22;55469;48.934;12.050;2022-11-28T08:53:26;4.50;95.90
68480;DHT22;55469;48.934;12.050;2022-11-28T08:55:52;4.50;95.90
68480;DHT22;55469;48.934;12.050;2022-11-28T08:58:18;4.50;95.90
68480;DHT22;55469;48.934;12.050;2022-11-28T09:00:43;4.50;95.90
68480;DHT22;55469;48.934;12.050;2022-11-28T09:03:14;4.50;95.90
68480;DHT22;55469;48.934;12.050;2022-11-28T09:05:42;4.50;95.90
68480;DHT22;55469;48.934;12.050;2022-11-28T09:08:14;4.50;96.00
68480;DHT22;55469;48.934;12.050;2022-11-28T09:10:41;4.50;95.90
68480;DHT22;55469;48.934;12.050;2022-11-28T09:13:09;4.50;95.90
68480;DHT22;55469;48.934;12.050;2022-11-28T09:15:39;4.50;95.90
68480;DHT22;55469;48.934;12.050;2022-11-28T09:18:06;4.50;95.90
68480;DHT22;55469;48.934;12.050;2022-11-28T09:20:32;4.50;95.90
68480;DHT22;55469;48.934;12.050;2022-11-28T09:22:58;4.50;95.90
68480;DHT22;55469;48.934;12.050;2022-11-28T09:25:24;4.50;95.80
68480;DHT22;55469;48.934;12.050;2022-11-28T09:27:50;4.60;95.90
68480;DHT22;55469;48.934;12.050;2022-11-28T09:30:16;4.50;95.80
68480;DHT22;55469;48.934;12.050;2022-11-28T09:32:42;4.50;95.80
68480;DHT22;55469;48.934;12.050;2022-11-28T09:35:13;4.50;95.80
68480;DHT22;55469;48.934;12.050;2022-11-28T09:37:38;4.60;95.90
68480;DHT22;55469;48.934;12.050;2022-11-28T09:40:04;4.50;95.80
68480;DHT22;55469;48.934;12.050;2022-11-28T09:42:35;4.60;95.80
68480;DHT22;55469;48.934;12.050;2022-11-28T09:45:20;4.50;95.80
68480;DHT22;55469;48.934;12.050;2022-11-28T09:47:53;4.60;95.80
68480;DHT22;55469;48.934;12.050;2022-11-28T09:50:23;4.50;95.80
68480;DHT22;55469;48.934;12.050;2022-11-28T09:53:06;4.60;95.90
68480;DHT22;55469;48.934;12.050;2022-11-28T09:56:03;4.60;95.80
68480;DHT22;55469;48.934;12.050;2022-11-28T09:58:44;4.60;95.80
68480;DHT22;55469;48.934;12.050;2022-11-28T10:04:19;4.60;95.80
68480;DHT22;55469;48.934;12.050;2022-11-28T10:09:39;4.60;95.80
68480;DHT22;55469;48.934;12.050;2022-11-28T10:18:19;4.60;95.80
68480;DHT22;55469;48.934;12.050;2022-11-28T10:20:53;4.60;95.70
68480;DHT22;55469;48.934;12.050;2022-11-28T10:23:34;4.60;95.80
68480;DHT22;55469;48.934;12.050;2022-11-28T10:26:10;4.60;95.70
68480;DHT22;55469;48.934;12.050;2022-11-28T10:28:45;4.60;95.70
68480;DHT22;55469;48.934;12.050;2022-11-28T10:31:36;4.70;95.70
68480;DHT22;55469;48.934;12.050;2022-11-28T10:34:15;4.70;95.60
68480;DHT22;55469;48.934;12.050;2022-11-28T10:36:56;4.70;95.60
68480;DHT22;55469;48.934;12.050;2022-11-28T10:39:24;4.70;95.60
68480;DHT22;55469;48.934;12.050;2022-11-28T10:42:04;4.70;95.60
68480;DHT22;55469;48.934;12.050;2022-11-28T10:50:32;4.80;95.60
68480;DHT22;55469;48.934;12.050;2022-11-28T11:02:16;4.80;95.50
68480;DHT22;55469;48.934;12.050;2022-11-28T11:05:01;4.80;95.50
68480;DHT22;55469;48.934;12.050;2022-11-28T11:07:31;4.80;95.50
68480;DHT22;55469;48.934;12.050;2022-11-28T11:13:16;4.80;95.40
68480;DHT22;55469;48.934;12.050;2022-11-28T11:16:01;4.80;95.40
68480;DHT22;55469;48.934;12.050;2022-11-28T11:18:30;4.80;95.40
68480;DHT22;55469;48.934;12.050;2022-11-28T11:23:42;4.80;95.40
68480;DHT22;55469;48.934;12.050;2022-11-28T11:26:24;4.80;95.40
68480;DHT22;55469;48.934;12.050;2022-11-28T11:28:51;4.90;95.40
68480;DHT22;55469;48.934;12.050;2022-11-28T11:31:21;4.90;95.40
68480;DHT22;55469;48.934;12.050;2022-11-28T11:33:51;4.90;95.40
68480;DHT22;55469;48.934;12.050;2022-11-28T11:36:30;4.90;95.30
68480;DHT22;55469;48.934;12.050;2022-11-28T11:41:37;4.90;95.10
68480;DHT22;55469;48.934;12.050;2022-11-28T11:47:03;4.90;95.30
68480;DHT22;55469;48.934;12.050;2022-11-28T11:49:40;4.90;95.20
68480;DHT22;55469;48.934;12.050;2022-11-28T11:55:00;5.00;95.20
68480;DHT22;55469;48.934;12.050;2022-11-28T12:00:38;5.00;95.20
68480;DHT22;55469;48.934;12.050;2022-11-28T12:06:14;5.00;95.20
68480;DHT22;55469;48.934;12.050;2022-11-28T12:08:53;5.00;95.20
68480;DHT22;55469;48.934;12.050;2022-11-28T12:11:34;5.00;95.20
68480;DHT22;55469;48.934;12.050;2022-11-28T12:14:27;5.00;95.10
68480;DHT22;55469;48.934;12.050;2022-11-28T12:17:20;5.10;95.20
68480;DHT22;55469;48.934;12.050;2022-11-28T12:19:57;5.00;95.10
68480;DHT22;55469;48.934;12.050;2022-11-28T12:25:33;5.00;95.10
68480;DHT22;55469;48.934;12.050;2022-11-28T12:34:48;5.10;95.20
68480;DHT22;55469;48.934;12.050;2022-11-28T12:40:14;5.10;95.20
68480;DHT22;55469;48.934;12.050;2022-11-28T12:46:03;5.10;95.20
68480;DHT22;55469;48.934;12.050;2022-11-28T12:51:58;5.10;95.20
68480;DHT22;55469;48.934;12.050;2022-11-28T12:57:38;5.10;95.20
68480;DHT22;55469;48.934;12.050;2022-11-28T13:00:23;5.10;95.20
68480;DHT22;55469;48.934;12.050;2022-11-28T13:14:59;5.10;95.20
68480;DHT22;55469;48.934;12.050;2022-11-28T13:17:55;5.20;95.30
68480;DHT22;55469;48.934;12.050;2022-11-28T13:26:36;5.10;95.20
68480;DHT22;55469;48.934;12.050;2022-11-28T13:31:55;5.20;95.30
68480;DHT22;55469;48.934;12.050;2022-11-28T13:34:22;5.20;95.30
68480;DHT22;55469;48.934;12.050;2022-11-28T13:39:46;5.20;95.30
68480;DHT22;55469;48.934;12.050;2022-11-28T13:42:37;5.10;95.30
68480;DHT22;55469;48.934;12.050;2022-11-28T13:45:27;5.20;95.30
68480;DHT22;55469;48.934;12.050;2022-11-28T13:47:55;5.10;95.30
68480;DHT22;55469;48.934;12.050;2022-11-28T13:52:58;5.10;95.40
68480;DHT22;55469;48.934;12.050;2022-11-28T13:55:44;5.10;95.40
68480;DHT22;55469;48.934;12.050;2022-11-28T13:58:27;5.10;95.40
68480;DHT22;55469;48.934;12.050;2022-11-28T14:01:09;5.10;95.40
68480;DHT22;55469;48.934;12.050;2022-11-28T14:06:29;5.20;95.30
68480;DHT22;55469;48.934;12.050;2022-11-28T14:09:06;5.10;95.40
68480;DHT22;55469;48.934;12.050;2022-11-28T14:14:51;5.20;95.40
68480;DHT22;55469;48.934;12.050;2022-11-28T14:23:15;5.10;95.40
68480;DHT22;55469;48.934;12.050;2022-11-28T14:25:50;5.10;95.50
68480;DHT22;55469;48.934;12.050;2022-11-28T14:28:32;5.10;95.40
68480;DHT22;55469;48.934;12.050;2022-11-28T14:34:00;5.10;95.50
68480;DHT22;55469;48.934;12.050;2022-11-28T14:36:36;5.10;95.50
68480;DHT22;55469;48.934;12.050;2022-11-28T14:39:10;5.20;95.50
68480;DHT22;55469;48.934;12.050;2022-11-28T14:47:27;5.10;95.50
68480;DHT22;55469;48.934;12.050;2022-11-28T14:52:39;5.10;95.60
68480;DHT22;55469;48.934;12.050;2022-11-28T15:00:24;5.10;95.50
68480;DHT22;55469;48.934;12.050;2022-11-28T15:05:51;5.10;95.60
68480;DHT22;55469;48.934;12.050;2022-11-28T15:14:25;5.10;95.70
68480;DHT22;55469;48.934;12.050;2022-11-28T15:16:56;5.10;95.70
68480;DHT22;55469;48.934;12.050;2022-11-28T15:19:29;5.10;95.70
68480;DHT22;55469;48.934;12.050;2022-11-28T15:21:57;5.10;95.70
68480;DHT22;55469;48.934;12.050;2022-11-28T15:24:34;5.10;95.80
68480;DHT22;55469;48.934;12.050;2022-11-28T15:27:26;5.10;95.70
68480;DHT22;55469;48.934;12.050;2022-11-28T15:29:57;5.10;95.70
68480;DHT22;55469;48.934;12.050;2022-11-28T15:32:27;5.10;95.80
68480;DHT22;55469;48.934;12.050;2022-11-28T15:35:02;5.10;95.80
68480;DHT22;55469;48.934;12.050;2022-11-28T15:37:33;5.10;95.80
68480;DHT22;55469;48.934;12.050;2022-11-28T15:40:00;5.10;95.80
68480;DHT22;55469;48.934;12.050;2022-11-28T15:42:31;5.10;95.70
68480;DHT22;55469;48.934;12.050;2022-11-28T15:45:12;5.10;95.80
68480;DHT22;55469;48.934;12.050;2022-11-28T15:47:46;5.10;95.80
68480;DHT22;55469;48.934;12.050;2022-11-28T15:50:16;5.10;95.80
68480;DHT22;55469;48.934;12.050;2022-11-28T15:55:25;5.10;95.80
68480;DHT22;55469;48.934;12.050;2022-11-28T15:58:23;5.10;95.80
68480;DHT22;55469;48.934;12.050;2022-11-28T16:03:53;5.00;95.80
68480;DHT22;55469;48.934;12.050;2022-11-28T16:06:24;5.00;95.80
68480;DHT22;55469;48.934;12.050;2022-11-28T16:08:57;5.00;95.80
68480;DHT22;55469;48.934;12.050;2022-11-28T16:11:27;5.00;95.80
68480;DHT22;55469;48.934;12.050;2022-11-28T16:13:57;5.00;95.80
68480;DHT22;55469;48.934;12.050;2022-11-28T16:16:29;5.00;95.80
68480;DHT22;55469;48.934;12.050;2022-11-28T16:19:00;5.00;95.80
68480;DHT22;55469;48.934;12.050;2022-11-28T16:21:33;5.00;95.80
68480;DHT22;55469;48.934;12.050;2022-11-28T16:24:01;5.00;95.80
68480;DHT22;55469;48.934;12.050;2022-11-28T16:26:29;5.00;95.80
68480;DHT22;55469;48.934;12.050;2022-11-28T16:31:31;5.00;95.80
68480;DHT22;55469;48.934;12.050;2022-11-28T16:33:58;5.10;95.80
68480;DHT22;55469;48.934;12.050;2022-11-28T16:36:31;5.00;95.80
68480;DHT22;55469;48.934;12.050;2022-11-28T16:44:18;5.00;95.80
68480;DHT22;55469;48.934;12.050;2022-11-28T16:46:53;5.00;95.80
68480;DHT22;55469;48.934;12.050;2022-11-28T16:49:40;5.00;95.80
68480;DHT22;55469;48.934;12.050;2022-11-28T16:54:53;5.00;95.80
68480;DHT22;55469;48.934;12.050;2022-11-28T16:57:19;5.00;95.80
68480;DHT22;55469;48.934;12.050;2022-11-28T16:59:47;5.00;95.80
68480;DHT22;55469;48.934;12.050;2022-11-28T17:02:18;5.00;95.80
68480;DHT22;55469;48.934;12.050;2022-11-28T17:04:49;5.00;95.80
68480;DHT22;55469;48.934;12.050;2022-11-28T17:07:21;5.00;95.80
68480;DHT22;55469;48.934;12.050;2022-11-28T17:09:48;5.00;95.80
68480;DHT22;55469;48.934;12.050;2022-11-28T17:12:33;5.00;95.80
68480;DHT22;55469;48.934;12.050;2022-11-28T17:15:01;5.00;95.80
68480;DHT22;55469;48.934;12.050;2022-11-28T17:17:29;5.00;95.80
68480;DHT22;55469;48.934;12.050;2022-11-28T17:19:55;5.00;95.80
68480;DHT22;55469;48.934;12.050;2022-11-28T17:22:24;5.00;95.70
68480;DHT22;55469;48.934;12.050;2022-11-28T17:24:56;5.00;95.80
68480;DHT22;55469;48.934;12.050;2022-11-28T17:27:23;5.00;95.70
68480;DHT22;55469;48.934;12.050;2022-11-28T17:29:49;5.00;95.70
68480;DHT22;55469;48.934;12.050;2022-11-28T17:32:15;5.00;95.70
68480;DHT22;55469;48.934;12.050;2022-11-28T17:34:41;5.10;95.80
68480;DHT22;55469;48.934;12.050;2022-11-28T17:37:07;5.00;95.80
68480;DHT22;55469;48.934;12.050;2022-11-28T17:39:33;5.00;95.70
68480;DHT22;55469;48.934;12.050;2022-11-28T17:41:59;5.10;95.70
68480;DHT22;55469;48.934;12.050;2022-11-28T17:44:30;5.00;95.70
68480;DHT22;55469;48.934;12.050;2022-11-28T17:47:00;5.00;95.80
68480;DHT22;55469;48.934;12.050;2022-11-28T17:49:27;5.00;95.70
68480;DHT22;55469;48.934;12.050;2022-11-28T17:51:55;5.00;96.20
68480;DHT22;55469;48.934;12.050;2022-11-28T17:54:23;5.00;95.70
68480;DHT22;55469;48.934;12.050;2022-11-28T17:56:51;5.10;95.80
68480;DHT22;55469;48.934;12.050;2022-11-28T17:59:19;5.00;95.80
68480;DHT22;55469;48.934;12.050;2022-11-28T18:01:47;5.00;95.70
68480;DHT22;55469;48.934;12.050;2022-11-28T18:04:13;5.00;95.80
68480;DHT22;55469;48.934;12.050;2022-11-28T18:06:42;5.00;95.80
68480;DHT22;55469;48.934;12.050;2022-11-28T18:09:10;5.00;95.70
68480;DHT22;55469;48.934;12.050;2022-11-28T18:11:36;5.00;95.70
68480;DHT22;55469;48.934;12.050;2022-11-28T18:14:04;5.00;95.70
68480;DHT22;55469;48.934;12.050;2022-11-28T18:16:29;5.00;95.80
68480;DHT22;55469;48.934;12.050;2022-11-28T18:18:55;5.00;95.80
68480;DHT22;55469;48.934;12.050;2022-11-28T18:21:21;5.00;95.80
68480;DHT22;55469;48.934;12.050;2022-11-28T18:23:48;5.00;95.80
68480;DHT22;55469;48.934;12.050;2022-11-28T18:26:17;5.00;95.70
68480;DHT22;55469;48.934;12.050;2022-11-28T18:28:44;5.00;95.80
68480;DHT22;55469;48.934;12.050;2022-11-28T18:31:24;5.00;95.70
68480;DHT22;55469;48.934;12.050;2022-11-28T18:33:52;5.00;95.80
68480;DHT22;55469;48.934;12.050;2022-11-28T18:36:20;5.00;95.80
68480;DHT22;55469;48.934;12.050;2022-11-28T18:38:52;5.00;95.80
68480;DHT22;55469;48.934;12.050;2022-11-28T18:41:22;5.00;95.80
68480;DHT22;55469;48.934;12.050;2022-11-28T18:43:48;5.00;95.80
68480;DHT22;55469;48.934;12.050;2022-11-28T18:46:19;5.00;95.80
68480;DHT22;55469;48.934;12.050;2022-11-28T18:48:46;5.00;95.80
68480;DHT22;55469;48.934;12.050;2022-11-28T18:53:42;5.00;95.80
68480;DHT22;55469;48.934;12.050;2022-11-28T18:56:09;5.00;95.80
68480;DHT22;55469;48.934;12.050;2022-11-28T18:58:37;5.00;95.80
68480;DHT22;55469;48.934;12.050;2022-11-28T19:01:13;5.00;95.80
68480;DHT22;55469;48.934;12.050;2022-11-28T19:03:41;5.00;95.80
68480;DHT22;55469;48.934;12.050;2022-11-28T19:06:11;5.00;95.80
68480;DHT22;55469;48.934;12.050;2022-11-28T19:08:37;5.00;95.80
68480;DHT22;55469;48.934;12.050;2022-11-28T19:11:09;5.00;95.80
68480;DHT22;55469;48.934;12.050;2022-11-28T19:13:41;5.00;95.80
68480;DHT22;55469;48.934;12.050;2022-11-28T19:16:11;4.90;95.80
68480;DHT22;55469;48.934;12.050;2022-11-28T19:18:42;5.00;95.80
68480;DHT22;55469;48.934;12.050;2022-11-28T19:21:14;5.00;95.80
68480;DHT22;55469;48.934;12.050;2022-11-28T19:23:44;5.00;95.80
68480;DHT22;55469;48.934;12.050;2022-11-28T19:26:17;5.00;95.80
68480;DHT22;55469;48.934;12.050;2022-11-28T19:28:45;4.90;95.80
68480;DHT22;55469;48.934;12.050;2022-11-28T19:31:23;5.00;95.80
68480;DHT22;55469;48.934;12.050;2022-11-28T19:34:02;5.00;95.80